Time;durP1;ratioP1;P1;durP2;ratioP2;P2;SDS_P1;SDS_P2;PMS_P1;PMS_P2;Temp;Humidity;BMP_temperature;BMP_pressure;BME280_temperature;BME280_humidity;BME280_pressure;Samples;Min_cycle;Max_cycle;Signal;HPM_P1;HPM_P2
2021/08/28 00:01:17;;;;;;;4.25;2.25;;;;;;;;;;7374423;19;20018;-60
2021/08/28 00:03:43;;;;;;;3.28;2.30;;;;;;;;;;7376364;19;20693;-61
2021/08/28 00:06:09;;;;;;;4.53;2.55;;;;;;;;;;7375976;19;20910;-60
2021/08/28 00:08:35;;;;;;;2.22;2.00;;;;;;;;;;7373080;19;20014;-60
2021/08/28 00:11:01;;;;;;;3.60;2.47;;;;;;;;;;7375266;19;20038;-60
2021/08/28 00:13:27;;;;;;;4.82;2.60;;;;;;;;;;7374361;19;20023;-60
2021/08/28 00:15:53;;;;;;;2.88;2.35;;;;;;;;;;7376468;19;20632;-60
2021/08/28 00:18:19;;;;;;;6.38;2.47;;;;;;;;;;7373645;19;20026;-60
2021/08/28 00:20:45;;;;;;;3.42;2.20;;;;;;;;;;7371956;19;20749;-60
2021/08/28 00:23:11;;;;;;;6.88;2.70;;;;;;;;;;7373675;19;20129;-60
2021/08/28 00:25:37;;;;;;;4.15;2.30;;;;;;;;;;7373009;19;20787;-60
2021/08/28 00:28:03;;;;;;;2.85;2.30;;;;;;;;;;7373255;19;20700;-60
2021/08/28 00:30:29;;;;;;;10.43;2.78;;;;;;;;;;7373994;19;20014;-60
2021/08/28 00:32:55;;;;;;;4.30;2.42;;;;;;;;;;7374607;19;20015;-60
2021/08/28 00:35:21;;;;;;;3.22;2.63;;;;;;;;;;7373081;19;20021;-60
2021/08/28 00:37:48;;;;;;;3.83;2.70;;;;;;;;;;7372512;19;20018;-60
2021/08/28 00:40:14;;;;;;;2.60;2.40;;;;;;;;;;7375616;19;20094;-60
2021/08/28 00:42:40;;;;;;;8.15;2.83;;;;;;;;;;7375300;19;20138;-60
2021/08/28 00:45:06;;;;;;;6.35;2.50;;;;;;;;;;7372009;19;20025;-60
2021/08/28 00:47:32;;;;;;;3.72;2.63;;;;;;;;;;7372503;19;20019;-60
2021/08/28 00:49:58;;;;;;;6.80;3.38;;;;;;;;;;7376001;19;20043;-60
2021/08/28 00:52:24;;;;;;;6.10;2.58;;;;;;;;;;7374415;19;20011;-60
2021/08/28 00:54:51;;;;;;;4.53;2.50;;;;;;;;;;7375901;19;20895;-60
2021/08/28 00:57:17;;;;;;;3.55;2.42;;;;;;;;;;7374198;19;20609;-60
2021/08/28 00:59:47;;;;;;;5.80;2.75;;;;;;;;;;7375166;19;20053;-60
2021/08/28 01:02:13;;;;;;;3.47;2.78;;;;;;;;;;7371672;19;20117;-60
2021/08/28 01:04:39;;;;;;;6.78;2.95;;;;;;;;;;7376863;19;20023;-60
2021/08/28 01:07:10;;;;;;;3.47;2.47;;;;;;;;;;7370828;19;20026;-60
2021/08/28 01:09:55;;;;;;;3.67;3.00;;;;;;;;;;7377303;19;20025;-60
2021/08/28 01:12:43;;;;;;;3.58;2.90;;;;;;;;;;7372472;19;20018;-60
2021/08/28 01:15:12;;;;;;;3.63;2.90;;;;;;;;;;7374278;19;20018;-60
2021/08/28 01:17:39;;;;;;;5.78;3.03;;;;;;;;;;7372414;19;20014;-60
2021/08/28 01:20:06;;;;;;;4.15;3.33;;;;;;;;;;7372888;19;20039;-60
2021/08/28 01:22:51;;;;;;;7.53;3.53;;;;;;;;;;7376574;19;20053;-60
2021/08/28 01:25:35;;;;;;;5.95;2.85;;;;;;;;;;7374694;19;20029;-60
2021/08/28 01:28:18;;;;;;;3.50;2.63;;;;;;;;;;7373320;19;20041;-60
2021/08/28 01:30:44;;;;;;;7.00;3.10;;;;;;;;;;7372112;19;20032;-60
2021/08/28 01:33:10;;;;;;;5.80;3.28;;;;;;;;;;7372743;19;20526;-60
2021/08/28 01:35:36;;;;;;;4.80;3.38;;;;;;;;;;7372596;19;20022;-60
2021/08/28 01:38:03;;;;;;;7.45;3.95;;;;;;;;;;7372479;19;20018;-60
2021/08/28 01:40:47;;;;;;;7.55;3.67;;;;;;;;;;7371798;19;20026;-60
2021/08/28 01:43:14;;;;;;;6.00;3.90;;;;;;;;;;7373567;19;20030;-60
2021/08/28 01:45:40;;;;;;;4.57;3.55;;;;;;;;;;7373302;19;20026;-60
2021/08/28 01:48:06;;;;;;;6.32;3.70;;;;;;;;;;7374166;19;20061;-60
2021/08/28 01:50:31;;;;;;;6.55;3.15;;;;;;;;;;7375228;19;20014;-60
2021/08/28 01:53:14;;;;;;;5.63;3.80;;;;;;;;;;7370818;19;20098;-60
2021/08/28 01:55:42;;;;;;;6.00;3.80;;;;;;;;;;7373193;19;20026;-60
2021/08/28 01:58:09;;;;;;;4.57;3.53;;;;;;;;;;7370139;19;20029;-61
2021/08/28 02:00:54;;;;;;;5.38;3.67;;;;;;;;;;7374031;19;20019;-60
2021/08/28 02:03:39;;;;;;;3.95;3.33;;;;;;;;;;7371165;19;20074;-60
2021/08/28 02:06:06;;;;;;;4.65;3.53;;;;;;;;;;7372170;19;20022;-60
2021/08/28 02:08:38;;;;;;;5.07;3.47;;;;;;;;;;7370522;19;20026;-60
2021/08/28 02:11:04;;;;;;;5.65;3.35;;;;;;;;;;7373536;19;20039;-60
2021/08/28 02:13:30;;;;;;;4.75;3.45;;;;;;;;;;7370262;19;20035;-64
2021/08/28 02:15:57;;;;;;;6.85;3.90;;;;;;;;;;7372516;19;20023;-61
2021/08/28 02:18:24;;;;;;;8.32;3.78;;;;;;;;;;7368677;19;20018;-60
2021/08/28 02:21:05;;;;;;;8.35;3.25;;;;;;;;;;7370095;19;20022;-60
2021/08/28 02:23:33;;;;;;;8.20;4.20;;;;;;;;;;7372439;19;20051;-61
2021/08/28 02:26:19;;;;;;;4.60;3.95;;;;;;;;;;7370953;19;20703;-61
2021/08/28 02:28:47;;;;;;;7.28;3.88;;;;;;;;;;7370569;19;20793;-60
2021/08/28 02:31:13;;;;;;;9.40;4.18;;;;;;;;;;7369627;19;20018;-60
2021/08/28 02:33:48;;;;;;;5.45;4.28;;;;;;;;;;7370252;19;20026;-60
2021/08/28 02:36:14;;;;;;;5.50;3.40;;;;;;;;;;7369986;19;20014;-60
2021/08/28 02:38:41;;;;;;;6.82;4.07;;;;;;;;;;7369528;19;20247;-60
2021/08/28 02:41:07;;;;;;;6.63;4.07;;;;;;;;;;7371090;19;20035;-60
2021/08/28 02:43:35;;;;;;;4.90;4.07;;;;;;;;;;7370456;19;20074;-60
2021/08/28 02:46:02;;;;;;;4.15;3.63;;;;;;;;;;7370677;19;20053;-60
2021/08/28 02:48:29;;;;;;;5.20;3.78;;;;;;;;;;7367795;19;20030;-60
2021/08/28 02:50:55;;;;;;;6.55;3.92;;;;;;;;;;7369197;19;20022;-60
2021/08/28 02:53:23;;;;;;;6.15;4.13;;;;;;;;;;7368141;19;20022;-60
2021/08/28 02:55:49;;;;;;;5.07;4.18;;;;;;;;;;7372271;19;20014;-61
2021/08/28 02:58:15;;;;;;;7.45;4.43;;;;;;;;;;7368507;19;20047;-62
2021/08/28 03:00:43;;;;;;;5.55;3.50;;;;;;;;;;7369536;19;20014;-61
2021/08/28 03:03:10;;;;;;;8.77;4.20;;;;;;;;;;7369275;19;20018;-60
2021/08/28 03:05:36;;;;;;;5.72;4.22;;;;;;;;;;7370179;19;20865;-60
2021/08/28 03:08:03;;;;;;;5.38;4.50;;;;;;;;;;7368199;19;20018;-60
2021/08/28 03:10:31;;;;;;;6.43;4.32;;;;;;;;;;7366530;19;20031;-60
2021/08/28 03:12:57;;;;;;;6.50;4.55;;;;;;;;;;7368384;19;20131;-60
2021/08/28 03:15:24;;;;;;;13.00;4.85;;;;;;;;;;7368364;19;20022;-60
2021/08/28 03:18:07;;;;;;;6.07;4.85;;;;;;;;;;7369153;19;20039;-60
2021/08/28 03:20:33;;;;;;;5.13;4.25;;;;;;;;;;7368333;19;20025;-60
2021/08/28 03:22:59;;;;;;;6.15;4.85;;;;;;;;;;7370286;19;20024;-61
2021/08/28 03:25:25;;;;;;;8.38;5.07;;;;;;;;;;7368586;19;20018;-60
2021/08/28 03:27:51;;;;;;;6.43;4.85;;;;;;;;;;7366570;19;21043;-60
2021/08/28 03:30:18;;;;;;;8.77;4.95;;;;;;;;;;7372970;19;20027;-61
2021/08/28 03:32:47;;;;;;;6.05;5.05;;;;;;;;;;7375291;19;20018;-60
2021/08/28 03:35:13;;;;;;;11.05;5.55;;;;;;;;;;7376529;19;20062;-61
2021/08/28 03:37:41;;;;;;;7.20;5.40;;;;;;;;;;7374484;19;20899;-60
2021/08/28 03:40:11;;;;;;;10.25;5.22;;;;;;;;;;7375027;19;20022;-60
2021/08/28 03:42:37;;;;;;;8.13;5.78;;;;;;;;;;7377285;19;20022;-60
2021/08/28 03:45:04;;;;;;;6.95;5.13;;;;;;;;;;7376718;19;20061;-60
2021/08/28 03:47:34;;;;;;;8.63;5.63;;;;;;;;;;7373067;19;20026;-61
2021/08/28 03:50:01;;;;;;;10.05;6.10;;;;;;;;;;7375409;19;20094;-61
2021/08/28 03:52:27;;;;;;;7.38;5.38;;;;;;;;;;7374158;19;20028;-60
2021/08/28 03:54:54;;;;;;;7.13;5.28;;;;;;;;;;7375915;19;20029;-60
2021/08/28 03:57:20;;;;;;;7.20;5.50;;;;;;;;;;7377244;19;20041;-60
2021/08/28 03:59:46;;;;;;;10.23;5.88;;;;;;;;;;7374070;19;20021;-60
2021/08/28 04:02:18;;;;;;;8.32;6.20;;;;;;;;;;7373073;19;20028;-61
2021/08/28 04:04:48;;;;;;;11.60;6.18;;;;;;;;;;7373833;19;20019;-61
2021/08/28 04:07:14;;;;;;;12.15;5.68;;;;;;;;;;7374283;19;20022;-61
2021/08/28 04:09:40;;;;;;;8.02;6.07;;;;;;;;;;7373941;19;20019;-61
2021/08/28 04:12:06;;;;;;;7.55;5.68;;;;;;;;;;7371895;19;20014;-60
2021/08/28 04:14:34;;;;;;;10.43;6.40;;;;;;;;;;7374201;19;20504;-60
2021/08/28 04:17:00;;;;;;;8.38;5.18;;;;;;;;;;7376119;19;20032;-61
2021/08/28 04:19:26;;;;;;;8.48;5.57;;;;;;;;;;7374988;19;20015;-60
2021/08/28 04:22:01;;;;;;;12.02;6.55;;;;;;;;;;7371615;19;20113;-61
2021/08/28 04:24:53;;;;;;;6.38;5.38;;;;;;;;;;7374810;19;20045;-60
2021/08/28 04:27:42;;;;;;;9.65;6.50;;;;;;;;;;7373283;19;20053;-60
2021/08/28 04:30:15;;;;;;;11.05;7.18;;;;;;;;;;7372715;19;20457;-61
2021/08/28 04:32:41;;;;;;;13.20;7.10;;;;;;;;;;7373636;19;20013;-60
2021/08/28 04:35:08;;;;;;;12.35;8.15;;;;;;;;;;7376186;19;20018;-61
2021/08/28 04:37:34;;;;;;;15.60;8.38;;;;;;;;;;7373418;19;20019;-61
2021/08/28 04:40:00;;;;;;;13.13;8.55;;;;;;;;;;7374365;19;20022;-60
2021/08/28 04:42:26;;;;;;;13.25;8.85;;;;;;;;;;7373828;19;20106;-61
2021/08/28 04:44:55;;;;;;;17.50;10.38;;;;;;;;;;7374199;19;20019;-60
2021/08/28 04:47:22;;;;;;;19.35;10.60;;;;;;;;;;7374349;19;20018;-60
2021/08/28 04:49:48;;;;;;;16.77;9.00;;;;;;;;;;7372122;19;20018;-61
2021/08/28 04:52:41;;;;;;;21.40;9.35;;;;;;;;;;7372747;19;20014;-61
2021/08/28 04:55:07;;;;;;;15.10;9.85;;;;;;;;;;7372535;19;20380;-61
2021/08/28 04:57:33;;;;;;;14.15;9.50;;;;;;;;;;7372023;19;20018;-60
2021/08/28 04:59:59;;;;;;;14.65;9.68;;;;;;;;;;7372517;19;20019;-60
2021/08/28 05:02:44;;;;;;;15.77;10.20;;;;;;;;;;7377957;19;20047;-60
2021/08/28 05:05:10;;;;;;;15.55;10.55;;;;;;;;;;7374246;19;20130;-60
2021/08/28 05:07:36;;;;;;;14.57;9.95;;;;;;;;;;7374280;19;20121;-61
2021/08/28 05:10:02;;;;;;;17.90;10.05;;;;;;;;;;7373328;19;20022;-61
2021/08/28 05:12:30;;;;;;;17.95;9.55;;;;;;;;;;7375864;19;20022;-61
2021/08/28 05:15:08;;;;;;;17.48;9.55;;;;;;;;;;7375382;19;20022;-61
2021/08/28 05:17:43;;;;;;;14.57;8.15;;;;;;;;;;7373904;19;20360;-60
2021/08/28 05:20:09;;;;;;;14.55;9.45;;;;;;;;;;7374160;19;20018;-61
2021/08/28 05:22:52;;;;;;;13.00;8.20;;;;;;;;;;7373251;19;20025;-60
2021/08/28 05:25:44;;;;;;;13.35;8.68;;;;;;;;;;7376478;19;20058;-60
2021/08/28 05:28:10;;;;;;;10.25;6.82;;;;;;;;;;7371693;19;20109;-60
2021/08/28 05:30:36;;;;;;;17.60;8.55;;;;;;;;;;7372524;19;20097;-60
2021/08/28 05:33:02;;;;;;;13.55;7.43;;;;;;;;;;7374760;19;21087;-60
2021/08/28 05:35:28;;;;;;;12.88;7.70;;;;;;;;;;7374619;19;20025;-60
2021/08/28 05:38:10;;;;;;;12.90;8.05;;;;;;;;;;7372889;19;20018;-60
2021/08/28 05:40:38;;;;;;;11.68;6.90;;;;;;;;;;7373490;19;20026;-60
2021/08/28 05:43:04;;;;;;;8.73;6.20;;;;;;;;;;7375310;19;20090;-61
2021/08/28 05:46:02;;;;;;;9.00;6.60;;;;;;;;;;7373688;19;20428;-60
2021/08/28 05:48:32;;;;;;;10.85;7.22;;;;;;;;;;7370761;19;20026;-60
2021/08/28 05:50:59;;;;;;;9.13;6.03;;;;;;;;;;7371543;19;20060;-61
2021/08/28 05:53:33;;;;;;;8.40;5.72;;;;;;;;;;7369006;19;20033;-61
2021/08/28 05:55:59;;;;;;;9.32;6.18;;;;;;;;;;7372413;19;20022;-61
2021/08/28 05:58:26;;;;;;;7.38;4.88;;;;;;;;;;7374553;19;20018;-60
2021/08/28 06:00:52;;;;;;;8.13;5.47;;;;;;;;;;7370090;19;20019;-60
2021/08/28 06:03:18;;;;;;;11.52;5.93;;;;;;;;;;7373005;19;20047;-60
2021/08/28 06:05:50;;;;;;;7.85;5.50;;;;;;;;;;7371314;19;20018;-60
2021/08/28 06:08:19;;;;;;;7.60;5.35;;;;;;;;;;7374606;19;20035;-60
2021/08/28 06:10:56;;;;;;;8.68;5.20;;;;;;;;;;7372484;19;21023;-60
2021/08/28 06:13:47;;;;;;;8.38;5.20;;;;;;;;;;7371057;19;20023;-60
2021/08/28 06:16:18;;;;;;;9.32;4.70;;;;;;;;;;7371283;19;20542;-60
2021/08/28 06:18:44;;;;;;;8.70;5.00;;;;;;;;;;7370765;19;20018;-60
2021/08/28 06:21:10;;;;;;;16.05;6.43;;;;;;;;;;7371680;19;20030;-60
2021/08/28 06:23:36;;;;;;;10.45;5.63;;;;;;;;;;7370353;19;20053;-60
2021/08/28 06:26:20;;;;;;;8.05;5.72;;;;;;;;;;7374880;19;20020;-60
2021/08/28 06:28:47;;;;;;;9.32;6.30;;;;;;;;;;7369374;19;20812;-60
2021/08/28 06:31:13;;;;;;;8.40;4.90;;;;;;;;;;7369039;19;20022;-60
2021/08/28 06:33:39;;;;;;;10.50;6.38;;;;;;;;;;7369562;19;20022;-60
2021/08/28 06:36:06;;;;;;;8.98;6.32;;;;;;;;;;7371706;19;20025;-60
2021/08/28 06:38:58;;;;;;;9.40;5.88;;;;;;;;;;7371636;19;20057;-61
2021/08/28 06:41:42;;;;;;;9.30;6.00;;;;;;;;;;7373216;19;20484;-60
2021/08/28 06:44:27;;;;;;;8.15;5.65;;;;;;;;;;7373789;19;20034;-60
2021/08/28 06:47:12;;;;;;;9.38;6.28;;;;;;;;;;7373691;19;20048;-60
2021/08/28 06:49:57;;;;;;;11.30;6.63;;;;;;;;;;7373133;19;20431;-60
2021/08/28 06:52:42;;;;;;;8.88;6.07;;;;;;;;;;7372637;19;20037;-60
2021/08/28 06:55:28;;;;;;;8.25;5.50;;;;;;;;;;7368577;19;20018;-61
2021/08/28 06:58:26;;;;;;;7.38;5.50;;;;;;;;;;7368021;19;20384;-60
2021/08/28 07:01:25;;;;;;;8.05;5.40;;;;;;;;;;7367202;19;20024;-60
2021/08/28 07:04:14;;;;;;;9.02;5.43;;;;;;;;;;7370867;19;20035;-60
2021/08/28 07:07:07;;;;;;;9.43;6.10;;;;;;;;;;7369071;19;20031;-60
2021/08/28 07:09:34;;;;;;;9.45;6.05;;;;;;;;;;7370432;19;20047;-60
2021/08/28 07:12:00;;;;;;;14.35;7.90;;;;;;;;;;7367210;19;20390;-60
2021/08/28 07:14:26;;;;;;;13.15;7.75;;;;;;;;;;7368729;19;20018;-60
2021/08/28 07:16:52;;;;;;;6.95;4.78;;;;;;;;;;7368670;19;20018;-60
2021/08/28 07:19:18;;;;;;;11.35;6.43;;;;;;;;;;7369599;19;20018;-61
2021/08/28 07:21:45;;;;;;;11.25;6.38;;;;;;;;;;7368111;19;20021;-60
2021/08/28 07:24:12;;;;;;;9.55;5.88;;;;;;;;;;7368965;19;20640;-60
2021/08/28 07:26:41;;;;;;;12.20;7.32;;;;;;;;;;7369262;19;20649;-60
2021/08/28 07:29:36;;;;;;;8.45;5.28;;;;;;;;;;7366552;19;20363;-60
2021/08/28 07:32:03;;;;;;;9.52;6.32;;;;;;;;;;7367400;19;20362;-60
2021/08/28 07:34:35;;;;;;;10.13;5.50;;;;;;;;;;7368305;19;20011;-60
2021/08/28 07:37:01;;;;;;;14.32;7.13;;;;;;;;;;7368481;19;20436;-60
2021/08/28 07:39:27;;;;;;;9.73;5.60;;;;;;;;;;7367399;19;20011;-60
2021/08/28 07:41:53;;;;;;;9.95;5.55;;;;;;;;;;7366454;19;20044;-60
2021/08/28 07:44:19;;;;;;;13.88;7.93;;;;;;;;;;7371189;19;20039;-61
2021/08/28 07:46:48;;;;;;;12.05;5.78;;;;;;;;;;7369979;19;20010;-60
2021/08/28 07:49:20;;;;;;;8.70;5.43;;;;;;;;;;7369012;19;20015;-60
2021/08/28 07:51:47;;;;;;;10.65;6.28;;;;;;;;;;7365497;19;20777;-60
2021/08/28 07:54:14;;;;;;;9.40;5.53;;;;;;;;;;7365093;19;20039;-60
2021/08/28 07:56:41;;;;;;;8.10;5.18;;;;;;;;;;7367417;19;20018;-60
2021/08/28 07:59:07;;;;;;;10.45;5.82;;;;;;;;;;7366469;19;20018;-60
2021/08/28 08:01:33;;;;;;;8.30;5.40;;;;;;;;;;7363824;19;20013;-60
2021/08/28 08:03:59;;;;;;;11.75;6.55;;;;;;;;;;7367067;19;20018;-60
2021/08/28 08:06:44;;;;;;;9.80;6.40;;;;;;;;;;7369651;19;20870;-60
2021/08/28 08:09:30;;;;;;;13.88;5.70;;;;;;;;;;7365401;19;20021;-60
2021/08/28 08:12:19;;;;;;;8.32;5.32;;;;;;;;;;7365019;19;20735;-60
2021/08/28 08:15:04;;;;;;;9.98;5.47;;;;;;;;;;7365612;19;20095;-61
2021/08/28 08:17:49;;;;;;;8.68;5.10;;;;;;;;;;7351658;19;20687;-61
2021/08/28 08:20:37;;;;;;;7.20;4.63;;;;;;;;;;7374346;19;20349;-61
2021/08/28 08:23:39;;;;;;;5.80;4.05;;;;;;;;;;7374080;19;20021;-61
2021/08/28 08:26:28;;;;;;;7.55;4.20;;;;;;;;;;7372821;19;20019;-62
2021/08/28 08:29:12;;;;;;;7.15;3.95;;;;;;;;;;7375333;19;20119;-61
2021/08/28 08:31:53;;;;;;;6.72;3.78;;;;;;;;;;7371350;19;20022;-62
2021/08/28 08:34:39;;;;;;;4.45;3.53;;;;;;;;;;7371024;19;20412;-61
2021/08/28 08:37:08;;;;;;;4.65;3.13;;;;;;;;;;7373214;19;20717;-61
2021/08/28 08:39:34;;;;;;;4.88;3.30;;;;;;;;;;7373816;19;20047;-61
2021/08/28 08:42:01;;;;;;;6.68;2.90;;;;;;;;;;7366019;19;20483;-61
2021/08/28 08:44:27;;;;;;;5.50;2.67;;;;;;;;;;7373815;19;20018;-61
2021/08/28 08:46:54;;;;;;;4.38;3.50;;;;;;;;;;7367299;19;20018;-61
2021/08/28 08:49:20;;;;;;;7.07;2.92;;;;;;;;;;7374192;19;20031;-61
2021/08/28 08:51:46;;;;;;;5.57;3.25;;;;;;;;;;7371056;19;20015;-62
2021/08/28 08:54:13;;;;;;;4.80;2.90;;;;;;;;;;7371502;19;20014;-60
2021/08/28 08:56:39;;;;;;;4.45;2.90;;;;;;;;;;7373894;19;20010;-60
2021/08/28 08:59:05;;;;;;;3.83;2.45;;;;;;;;;;7374849;19;20027;-60
2021/08/28 09:01:32;;;;;;;6.63;2.83;;;;;;;;;;7369381;19;20026;-60
2021/08/28 09:04:16;;;;;;;3.88;2.20;;;;;;;;;;7376444;19;20035;-63
2021/08/28 09:06:46;;;;;;;5.03;2.00;;;;;;;;;;7373311;19;20365;-60
2021/08/28 09:09:12;;;;;;;4.00;2.30;;;;;;;;;;7371371;19;20060;-60
2021/08/28 09:11:38;;;;;;;3.30;2.05;;;;;;;;;;7372104;19;20011;-60
2021/08/28 09:14:04;;;;;;;3.90;2.10;;;;;;;;;;7370194;19;20021;-60
2021/08/28 09:16:30;;;;;;;3.83;2.55;;;;;;;;;;7372740;19;20023;-60
2021/08/28 09:18:56;;;;;;;3.35;2.20;;;;;;;;;;7372246;19;20065;-60
2021/08/28 09:21:23;;;;;;;4.00;2.38;;;;;;;;;;7373636;19;20014;-60
2021/08/28 09:23:49;;;;;;;8.05;4.55;;;;;;;;;;7372451;19;20340;-60
2021/08/28 09:26:15;;;;;;;3.83;1.90;;;;;;;;;;7375749;19;20025;-60
2021/08/28 09:28:41;;;;;;;9.55;4.47;;;;;;;;;;7374397;19;20010;-60
2021/08/28 09:31:07;;;;;;;4.18;2.00;;;;;;;;;;7371904;19;20078;-61
2021/08/28 09:33:36;;;;;;;4.20;2.17;;;;;;;;;;7373639;19;20021;-60
2021/08/28 09:36:02;;;;;;;3.72;2.15;;;;;;;;;;7375349;19;20494;-61
2021/08/28 09:38:28;;;;;;;4.00;1.80;;;;;;;;;;7374865;19;20765;-61
2021/08/28 09:40:54;;;;;;;4.75;1.80;;;;;;;;;;7373830;19;20054;-61
2021/08/28 09:43:20;;;;;;;2.03;1.50;;;;;;;;;;7373622;19;20600;-60
2021/08/28 09:45:46;;;;;;;11.48;4.22;;;;;;;;;;7375018;19;20035;-61
2021/08/28 09:48:12;;;;;;;2.90;1.80;;;;;;;;;;7372773;19;20786;-61
2021/08/28 09:50:38;;;;;;;9.40;3.45;;;;;;;;;;7374593;19;20043;-61
2021/08/28 09:53:04;;;;;;;1.95;1.60;;;;;;;;;;7373107;19;20403;-61
2021/08/28 09:55:31;;;;;;;3.20;2.20;;;;;;;;;;7373837;19;20047;-61
2021/08/28 09:57:57;;;;;;;2.95;1.48;;;;;;;;;;7371819;19;20019;-61
2021/08/28 10:00:23;;;;;;;2.58;1.75;;;;;;;;;;7375317;19;20108;-61
2021/08/28 10:02:49;;;;;;;2.58;1.50;;;;;;;;;;7373710;19;20834;-61
2021/08/28 10:05:15;;;;;;;9.65;4.47;;;;;;;;;;7374345;19;20014;-61
2021/08/28 10:07:41;;;;;;;3.80;2.17;;;;;;;;;;7373856;19;20021;-61
2021/08/28 10:10:07;;;;;;;2.08;1.25;;;;;;;;;;7371328;19;20017;-60
2021/08/28 10:12:33;;;;;;;2.53;1.55;;;;;;;;;;7374754;19;20022;-61
2021/08/28 10:14:59;;;;;;;9.05;5.00;;;;;;;;;;7373259;19;20015;-61
2021/08/28 10:17:25;;;;;;;5.25;2.55;;;;;;;;;;7373129;19;20016;-60
2021/08/28 10:19:51;;;;;;;3.72;1.73;;;;;;;;;;7373421;19;20018;-61
2021/08/28 10:22:17;;;;;;;2.78;1.60;;;;;;;;;;7371302;19;20090;-61
2021/08/28 10:24:43;;;;;;;2.65;1.50;;;;;;;;;;7372625;19;20031;-61
2021/08/28 10:27:12;;;;;;;3.70;1.60;;;;;;;;;;7370303;19;20085;-61
2021/08/28 10:29:38;;;;;;;3.00;1.80;;;;;;;;;;7373634;19;20022;-61
2021/08/28 10:32:04;;;;;;;2.33;1.50;;;;;;;;;;7369375;19;20453;-60
2021/08/28 10:34:30;;;;;;;5.95;1.75;;;;;;;;;;7371152;19;20022;-60
2021/08/28 10:36:56;;;;;;;3.08;2.33;;;;;;;;;;7368834;19;20784;-61
2021/08/28 10:39:22;;;;;;;2.90;1.60;;;;;;;;;;7371457;19;20021;-61
2021/08/28 10:41:48;;;;;;;1.80;1.60;;;;;;;;;;7371752;19;20772;-60
2021/08/28 10:44:14;;;;;;;4.70;1.73;;;;;;;;;;7371783;19;20014;-60
2021/08/28 10:46:39;;;;;;;6.47;1.65;;;;;;;;;;7370839;19;20517;-60
2021/08/28 10:49:15;;;;;;;;;;;;;;;;;;7369096;19;20991;-61
2021/08/28 10:51:41;;;;;;;3.35;1.45;;;;;;;;;;7368617;19;19926;-61
2021/08/28 10:54:07;;;;;;;2.78;1.40;;;;;;;;;;7367767;19;20018;-61
2021/08/28 10:56:33;;;;;;;5.20;2.30;;;;;;;;;;7370948;19;20034;-61
2021/08/28 10:58:59;;;;;;;3.88;1.88;;;;;;;;;;7370289;19;20053;-60
2021/08/28 11:01:25;;;;;;;2.88;2.13;;;;;;;;;;7369885;19;20014;-66
2021/08/28 11:03:50;;;;;;;3.78;1.95;;;;;;;;;;7372013;19;20010;-68
2021/08/28 11:06:16;;;;;;;5.25;2.80;;;;;;;;;;7371180;19;20018;-68
2021/08/28 11:08:42;;;;;;;9.18;3.70;;;;;;;;;;7369382;19;20017;-68
2021/08/28 11:11:08;;;;;;;3.72;2.08;;;;;;;;;;7370222;19;20388;-68
2021/08/28 11:13:34;;;;;;;3.58;1.73;;;;;;;;;;7370145;19;20754;-67
2021/08/28 11:16:00;;;;;;;1.65;1.20;;;;;;;;;;7367703;19;20022;-67
2021/08/28 11:18:26;;;;;;;2.35;1.48;;;;;;;;;;7367920;19;20023;-67
2021/08/28 11:20:52;;;;;;;1.75;1.30;;;;;;;;;;7369511;19;20029;-68
2021/08/28 11:23:18;;;;;;;4.47;1.40;;;;;;;;;;7370069;19;20059;-67
2021/08/28 11:25:44;;;;;;;2.80;1.58;;;;;;;;;;7371711;19;20022;-67
2021/08/28 11:28:10;;;;;;;1.85;1.30;;;;;;;;;;7365741;19;20385;-67
2021/08/28 11:30:36;;;;;;;3.28;1.45;;;;;;;;;;7369606;19;20023;-67
2021/08/28 11:33:02;;;;;;;4.63;1.30;;;;;;;;;;7366174;19;20026;-67
2021/08/28 11:35:28;;;;;;;2.38;1.60;;;;;;;;;;7370713;19;20102;-67
2021/08/28 11:37:54;;;;;;;3.67;1.20;;;;;;;;;;7367703;19;20116;-67
2021/08/28 11:40:20;;;;;;;2.72;1.55;;;;;;;;;;7369886;19;20007;-67
2021/08/28 11:42:46;;;;;;;3.05;1.23;;;;;;;;;;7367842;19;20082;-67
2021/08/28 11:45:12;;;;;;;2.97;1.25;;;;;;;;;;7369006;19;20058;-68
2021/08/28 11:47:39;;;;;;;2.72;1.60;;;;;;;;;;7369347;19;20028;-68
2021/08/28 11:50:06;;;;;;;5.72;1.60;;;;;;;;;;7372421;19;20463;-68
2021/08/28 11:52:32;;;;;;;2.92;2.05;;;;;;;;;;7377517;19;20023;-68
2021/08/28 11:54:58;;;;;;;2.03;1.52;;;;;;;;;;7375793;19;20026;-68
2021/08/28 11:57:24;;;;;;;2.95;1.85;;;;;;;;;;7377139;19;20113;-68
2021/08/28 11:59:50;;;;;;;2.17;1.33;;;;;;;;;;7375711;19;20026;-68
2021/08/28 12:02:16;;;;;;;3.45;2.38;;;;;;;;;;7374813;19;20426;-68
2021/08/28 12:04:42;;;;;;;1.35;1.05;;;;;;;;;;7377634;19;20022;-68
2021/08/28 12:07:08;;;;;;;3.50;2.08;;;;;;;;;;7373812;19;20010;-67
2021/08/28 12:09:34;;;;;;;13.45;4.30;;;;;;;;;;7377522;19;20043;-67
2021/08/28 12:12:00;;;;;;;14.43;4.72;;;;;;;;;;7373708;19;20026;-68
2021/08/28 12:14:26;;;;;;;10.23;3.78;;;;;;;;;;7372431;19;20018;-68
2021/08/28 12:16:52;;;;;;;12.65;4.35;;;;;;;;;;7374488;19;20494;-68
2021/08/28 12:19:18;;;;;;;16.52;5.07;;;;;;;;;;7375982;19;20029;-68
2021/08/28 12:21:44;;;;;;;19.88;5.70;;;;;;;;;;7373881;19;20098;-68
2021/08/28 12:24:10;;;;;;;7.85;3.65;;;;;;;;;;7375986;19;20019;-68
2021/08/28 12:26:36;;;;;;;34.13;6.55;;;;;;;;;;7375863;19;20015;-68
2021/08/28 12:29:02;;;;;;;30.70;6.68;;;;;;;;;;7372995;19;20051;-68
2021/08/28 12:31:28;;;;;;;43.10;7.30;;;;;;;;;;7374379;19;20022;-68
2021/08/28 12:33:54;;;;;;;73.30;8.65;;;;;;;;;;7372815;19;20019;-68
2021/08/28 12:36:20;;;;;;;85.85;11.52;;;;;;;;;;7374760;19;20086;-67
2021/08/28 12:38:46;;;;;;;75.43;10.13;;;;;;;;;;7372576;19;20039;-67
2021/08/28 12:41:12;;;;;;;35.65;6.03;;;;;;;;;;7373929;19;20066;-67
2021/08/28 12:43:38;;;;;;;67.00;8.63;;;;;;;;;;7374544;19;20085;-67
2021/08/28 12:46:04;;;;;;;54.78;7.25;;;;;;;;;;7373545;19;20019;-67
2021/08/28 12:48:30;;;;;;;59.67;8.07;;;;;;;;;;7374497;19;20018;-68
2021/08/28 12:50:55;;;;;;;89.53;10.00;;;;;;;;;;7372945;19;20899;-68
2021/08/28 12:53:21;;;;;;;75.90;9.88;;;;;;;;;;7374248;19;20790;-68
2021/08/28 12:55:47;;;;;;;55.70;8.00;;;;;;;;;;7374267;19;20808;-68
2021/08/28 12:58:13;;;;;;;51.28;7.07;;;;;;;;;;7375140;19;20018;-68
2021/08/28 13:00:39;;;;;;;87.75;10.43;;;;;;;;;;7373099;19;20582;-68
2021/08/28 13:03:05;;;;;;;51.40;7.07;;;;;;;;;;7373851;19;20743;-66
2021/08/28 13:05:31;;;;;;;52.25;7.18;;;;;;;;;;7373861;19;20014;-68
2021/08/28 13:07:57;;;;;;;59.45;7.95;;;;;;;;;;7370475;19;20037;-68
2021/08/28 13:10:23;;;;;;;57.50;7.13;;;;;;;;;;7375376;19;20039;-68
2021/08/28 13:12:49;;;;;;;36.08;5.93;;;;;;;;;;7374214;19;20059;-68
2021/08/28 13:15:15;;;;;;;38.47;6.78;;;;;;;;;;7373119;19;20055;-68
2021/08/28 13:17:42;;;;;;;52.28;7.78;;;;;;;;;;7372603;19;20867;-68
2021/08/28 13:20:07;;;;;;;27.50;5.65;;;;;;;;;;7374460;19;20536;-68
2021/08/28 13:22:40;;;;;;;43.42;7.95;;;;;;;;;;7373127;19;20025;-68
2021/08/28 13:25:05;;;;;;;43.38;6.85;;;;;;;;;;7373235;19;20023;-67
2021/08/28 13:27:31;;;;;;;34.30;6.18;;;;;;;;;;7372394;19;20142;-68
2021/08/28 13:29:57;;;;;;;37.63;6.45;;;;;;;;;;7372864;19;20020;-68
2021/08/28 13:32:28;;;;;;;44.13;7.18;;;;;;;;;;7372276;19;20018;-68
2021/08/28 13:34:54;;;;;;;21.23;5.70;;;;;;;;;;7370221;19;20022;-68
2021/08/28 13:37:20;;;;;;;30.60;6.32;;;;;;;;;;7371119;19;20022;-68
2021/08/28 13:39:46;;;;;;;14.77;5.07;;;;;;;;;;7374792;19;20415;-68
2021/08/28 13:42:12;;;;;;;28.33;6.32;;;;;;;;;;7372660;19;20505;-68
2021/08/28 13:44:38;;;;;;;26.58;6.22;;;;;;;;;;7374447;19;20014;-67
2021/08/28 13:47:03;;;;;;;29.35;7.13;;;;;;;;;;7369581;19;20014;-67
2021/08/28 13:49:29;;;;;;;21.20;5.32;;;;;;;;;;7373818;19;20041;-68
2021/08/28 13:51:55;;;;;;;20.65;5.70;;;;;;;;;;7371102;19;20040;-68
2021/08/28 13:54:21;;;;;;;33.92;6.95;;;;;;;;;;7372115;19;20018;-68
2021/08/28 13:56:47;;;;;;;28.77;6.53;;;;;;;;;;7372074;19;20014;-68
2021/08/28 13:59:13;;;;;;;21.58;5.63;;;;;;;;;;7373368;19;20094;-68
2021/08/28 14:01:40;;;;;;;15.77;4.90;;;;;;;;;;7373475;19;20897;-67
2021/08/28 14:04:06;;;;;;;15.73;5.43;;;;;;;;;;7373845;19;20018;-68
2021/08/28 14:06:33;;;;;;;20.33;5.80;;;;;;;;;;7373110;19;20028;-68
2021/08/28 14:08:58;;;;;;;19.98;6.18;;;;;;;;;;7372880;19;20465;-68
2021/08/28 14:11:24;;;;;;;20.77;5.70;;;;;;;;;;7372817;19;20102;-68
2021/08/28 14:13:50;;;;;;;22.27;4.78;;;;;;;;;;7367982;19;20014;-68
2021/08/28 14:16:16;;;;;;;19.45;5.75;;;;;;;;;;7374148;19;20018;-68
2021/08/28 14:18:42;;;;;;;13.10;4.97;;;;;;;;;;7372828;19;20010;-68
2021/08/28 14:21:08;;;;;;;11.07;4.43;;;;;;;;;;7371878;19;20127;-66
2021/08/28 14:23:34;;;;;;;4.28;2.55;;;;;;;;;;7374528;19;20022;-67
2021/08/28 14:26:00;;;;;;;7.65;3.25;;;;;;;;;;7372480;19;20079;-69
2021/08/28 14:28:27;;;;;;;5.45;2.83;;;;;;;;;;7370454;19;20024;-68
2021/08/28 14:30:52;;;;;;;4.82;2.60;;;;;;;;;;7372202;19;20021;-69
2021/08/28 14:33:23;;;;;;;2.65;1.70;;;;;;;;;;7372608;19;20026;-71
2021/08/28 14:35:49;;;;;;;4.65;2.75;;;;;;;;;;7372341;19;20025;-68
2021/08/28 14:38:15;;;;;;;8.77;3.90;;;;;;;;;;7372561;19;20086;-70
2021/08/28 14:40:42;;;;;;;11.80;4.35;;;;;;;;;;7372990;19;20015;-68
2021/08/28 14:43:08;;;;;;;7.68;3.40;;;;;;;;;;7371961;19;20014;-68
2021/08/28 14:45:34;;;;;;;13.10;4.57;;;;;;;;;;7372924;19;20018;-68
2021/08/28 14:48:00;;;;;;;12.13;3.95;;;;;;;;;;7370658;19;20034;-68
2021/08/28 14:50:25;;;;;;;13.88;4.95;;;;;;;;;;7371905;19;20014;-68